createdAt,value
2022-10-25T00:00:55.548Z,9.29
2022-10-25T00:03:25.910Z,9.28
2022-10-25T00:05:53.881Z,9.26
2022-10-25T00:08:22.775Z,9.25
2022-10-25T00:10:51.087Z,9.25
2022-10-25T00:13:18.547Z,9.26
2022-10-25T00:15:46.377Z,9.27
2022-10-25T00:18:14.635Z,9.31
2022-10-25T00:20:42.217Z,9.32
2022-10-25T00:23:24.821Z,9.35
2022-10-25T00:26:02.688Z,9.37
2022-10-25T00:28:30.601Z,9.38
2022-10-25T00:31:09.509Z,9.38
2022-10-25T00:33:38.301Z,9.41
2022-10-25T00:36:10.108Z,9.42
2022-10-25T00:38:38.264Z,9.43
2022-10-25T00:41:06.843Z,9.42
2022-10-25T00:43:46.827Z,9.40
2022-10-25T00:46:23.115Z,9.41
2022-10-25T00:49:18.957Z,9.40
2022-10-25T00:51:56.856Z,9.41
2022-10-25T00:54:32.009Z,9.40
2022-10-25T00:57:05.100Z,9.38
2022-10-25T00:59:33.060Z,9.39
2022-10-25T01:02:00.894Z,9.39
2022-10-25T01:04:31.900Z,9.39
2022-10-25T01:07:01.491Z,9.41
2022-10-25T01:09:33.197Z,9.39
2022-10-25T01:12:01.086Z,9.40
2022-10-25T01:14:29.982Z,9.40
2022-10-25T01:17:35.998Z,9.39
2022-10-25T01:20:28.676Z,9.38
2022-10-25T01:23:34.914Z,9.38
2022-10-25T01:26:42.663Z,9.38
2022-10-25T01:29:41.460Z,9.39
2022-10-25T01:32:47.370Z,9.39
2022-10-25T01:35:26.461Z,9.41
2022-10-25T01:38:02.360Z,9.41
2022-10-25T01:40:53.273Z,9.43
2022-10-25T01:43:55.046Z,9.44
2022-10-25T01:46:33.730Z,9.47
2022-10-25T01:49:08.829Z,9.51
2022-10-25T01:51:37.118Z,9.52
2022-10-25T01:54:25.924Z,9.53
2022-10-25T01:57:27.675Z,9.56
2022-10-25T02:00:11.613Z,9.58
2022-10-25T02:03:28.164Z,9.60
2022-10-25T02:06:12.934Z,9.63
2022-10-25T02:08:47.552Z,9.67
2022-10-25T02:11:30.265Z,9.69
2022-10-25T02:14:32.460Z,9.70
2022-10-25T02:17:13.962Z,9.71
2022-10-25T02:19:45.830Z,9.72
2022-10-25T02:22:15.626Z,9.71
2022-10-25T02:24:45.599Z,9.68
2022-10-25T02:27:14.149Z,9.68
2022-10-25T02:29:43.826Z,9.68
2022-10-25T02:32:11.275Z,9.68
2022-10-25T02:34:40.587Z,9.70
2022-10-25T02:37:08.386Z,9.71
2022-10-25T02:39:36.623Z,9.74
2022-10-25T02:42:05.225Z,9.73
2022-10-25T02:44:35.355Z,9.76
2022-10-25T02:47:03.047Z,9.77
2022-10-25T02:49:30.960Z,9.76
2022-10-25T02:51:58.580Z,9.77
2022-10-25T02:54:25.976Z,9.77
2022-10-25T02:56:53.769Z,9.76
2022-10-25T02:59:21.532Z,9.76
2022-10-25T03:01:49.440Z,9.74
2022-10-25T03:04:17.284Z,9.73
2022-10-25T03:06:44.895Z,9.71
2022-10-25T03:09:12.716Z,9.69
2022-10-25T03:11:40.702Z,9.66
2022-10-25T03:14:08.499Z,9.65
2022-10-25T03:16:36.203Z,9.64
2022-10-25T03:19:04.185Z,9.59
2022-10-25T03:21:31.945Z,9.56
2022-10-25T03:23:59.574Z,9.51
2022-10-25T03:26:27.272Z,9.48
2022-10-25T03:28:55.032Z,9.45
2022-10-25T03:31:22.920Z,9.41
2022-10-25T03:33:51.052Z,9.40
2022-10-25T03:36:18.945Z,9.37
2022-10-25T03:38:46.586Z,9.36
2022-10-25T03:41:14.105Z,9.36
2022-10-25T03:43:41.725Z,9.33
2022-10-25T03:46:09.332Z,9.32
2022-10-25T03:48:36.895Z,9.30
2022-10-25T03:51:04.908Z,9.28
2022-10-25T03:53:32.990Z,9.28
2022-10-25T03:56:00.541Z,9.27
2022-10-25T03:58:28.372Z,9.25
2022-10-25T04:00:56.150Z,9.25
2022-10-25T04:03:24.212Z,9.25
2022-10-25T04:05:52.057Z,9.26
2022-10-25T04:08:19.680Z,9.25
2022-10-25T04:10:47.285Z,9.26
2022-10-25T04:13:15.999Z,9.25
2022-10-25T04:15:43.850Z,9.26
2022-10-25T04:18:11.504Z,9.27
2022-10-25T04:20:39.211Z,9.27
2022-10-25T04:23:06.965Z,9.26
2022-10-25T04:25:34.666Z,9.26
2022-10-25T04:28:03.060Z,9.26
2022-10-25T04:30:33.913Z,9.24
2022-10-25T04:33:00.181Z,9.23
2022-10-25T04:35:27.999Z,9.21
2022-10-25T04:37:58.078Z,9.22
2022-10-25T04:40:26.058Z,9.19
2022-10-25T04:42:54.017Z,9.19
2022-10-25T04:45:21.602Z,9.18
2022-10-25T04:47:49.464Z,9.17
2022-10-25T04:50:17.147Z,9.19
2022-10-25T04:52:45.074Z,9.19
2022-10-25T04:55:12.952Z,9.20
2022-10-25T04:57:40.565Z,9.21
2022-10-25T05:00:10.172Z,9.23
2022-10-25T05:02:37.719Z,9.24
2022-10-25T05:05:06.387Z,9.25
2022-10-25T05:07:33.927Z,9.25
2022-10-25T05:10:01.827Z,9.27
2022-10-25T05:12:29.601Z,9.29
2022-10-25T05:14:57.122Z,9.35
2022-10-25T05:17:24.697Z,9.40
2022-10-25T05:19:52.469Z,9.44
2022-10-25T05:22:20.085Z,9.48
2022-10-25T05:24:47.520Z,9.52
2022-10-25T05:27:15.392Z,9.58
2022-10-25T05:29:43.168Z,9.64
2022-10-25T05:32:11.096Z,9.69
2022-10-25T05:34:39.065Z,9.75
2022-10-25T05:37:06.770Z,9.80
2022-10-25T05:39:34.310Z,9.90
2022-10-25T05:42:03.963Z,10.02
2022-10-25T05:44:31.977Z,10.10
2022-10-25T05:46:59.625Z,10.21
2022-10-25T05:49:27.297Z,10.31
2022-10-25T05:51:55.062Z,10.38
2022-10-25T05:54:22.982Z,10.51
2022-10-25T05:56:50.695Z,10.64
2022-10-25T05:59:18.158Z,10.79
2022-10-25T06:01:46.973Z,10.83
2022-10-25T06:04:16.726Z,10.85
2022-10-25T06:06:46.689Z,10.88
2022-10-25T06:09:14.880Z,10.91
2022-10-25T06:11:43.015Z,10.96
2022-10-25T06:14:11.181Z,11.01
2022-10-25T06:16:38.941Z,11.06
2022-10-25T06:19:06.845Z,11.06
2022-10-25T06:21:37.466Z,11.07
2022-10-25T06:24:10.045Z,11.06
2022-10-25T06:26:39.026Z,11.09
2022-10-25T06:29:06.565Z,11.11
2022-10-25T06:31:34.372Z,11.11
2022-10-25T06:34:02.620Z,11.13
2022-10-25T06:36:31.440Z,11.19
2022-10-25T06:39:05.645Z,11.29
2022-10-25T06:41:30.879Z,11.45
2022-10-25T06:44:05.222Z,11.71
2022-10-25T06:46:32.924Z,11.98
2022-10-25T06:49:03.986Z,12.21
2022-10-25T06:51:33.024Z,12.45
2022-10-25T06:54:09.055Z,12.66
2022-10-25T06:56:36.922Z,12.87
2022-10-25T06:59:07.596Z,13.10
2022-10-25T07:01:35.302Z,13.29
2022-10-25T07:04:03.584Z,13.42
2022-10-25T07:06:35.000Z,13.53
2022-10-25T07:09:04.766Z,13.63
2022-10-25T07:11:33.210Z,13.68
2022-10-25T07:14:03.743Z,13.71
2022-10-25T07:16:31.595Z,13.74
2022-10-25T07:19:01.116Z,13.75
2022-10-25T07:21:30.656Z,13.76
2022-10-25T07:23:58.453Z,13.75
2022-10-25T07:26:30.993Z,13.76
2022-10-25T07:29:00.748Z,13.77
2022-10-25T07:31:32.863Z,13.80
2022-10-25T07:34:02.188Z,13.79
2022-10-25T07:36:30.572Z,13.79
2022-10-25T07:38:58.938Z,13.78
2022-10-25T07:41:27.225Z,13.80
2022-10-25T07:43:55.188Z,13.82
2022-10-25T07:46:24.825Z,13.84
2022-10-25T07:48:52.332Z,13.84
2022-10-25T07:51:20.480Z,13.88
2022-10-25T07:53:47.939Z,13.87
2022-10-25T07:56:22.237Z,13.90
2022-10-25T07:58:47.911Z,13.91
2022-10-25T08:01:23.153Z,13.93
2022-10-25T08:03:52.595Z,13.92
2022-10-25T08:06:22.376Z,13.92
2022-10-25T08:08:49.873Z,13.92
2022-10-25T08:11:17.808Z,13.90
2022-10-25T08:13:49.390Z,13.90
2022-10-25T08:16:17.265Z,13.88
2022-10-25T08:18:44.662Z,13.84
2022-10-25T08:21:12.435Z,13.80
2022-10-25T08:23:40.238Z,13.80
2022-10-25T08:26:08.289Z,13.77
2022-10-25T08:28:36.482Z,13.77
2022-10-25T08:31:04.462Z,13.78
2022-10-25T08:33:33.325Z,13.80
2022-10-25T08:36:02.486Z,13.83
2022-10-25T08:38:34.189Z,13.85
2022-10-25T08:41:41.706Z,13.87
2022-10-25T08:44:14.684Z,13.91
2022-10-25T08:47:16.716Z,13.94
2022-10-25T08:49:58.438Z,14.00
2022-10-25T08:52:37.851Z,14.04
2022-10-25T08:55:14.324Z,14.05
2022-10-25T08:57:48.382Z,14.07
2022-10-25T09:00:22.132Z,14.08
2022-10-25T09:03:00.750Z,14.09
2022-10-25T09:05:37.827Z,14.06
2022-10-25T09:08:29.935Z,14.02
2022-10-25T09:11:02.912Z,13.99
2022-10-25T09:13:57.605Z,13.96
2022-10-25T09:16:49.644Z,13.95
2022-10-25T09:19:36.856Z,13.92
2022-10-25T09:22:10.382Z,13.88
2022-10-25T09:24:55.439Z,13.86
2022-10-25T09:27:42.708Z,13.84
2022-10-25T09:30:16.457Z,13.81
2022-10-25T09:32:49.591Z,13.78
2022-10-25T09:35:24.698Z,13.76
2022-10-25T09:38:16.649Z,13.81
2022-10-25T09:40:48.895Z,13.85
2022-10-25T09:43:22.710Z,13.90
2022-10-25T09:46:04.389Z,13.93
2022-10-25T09:48:46.357Z,13.97
2022-10-25T09:51:42.623Z,13.99
2022-10-25T09:54:15.025Z,14.02
2022-10-25T09:56:42.825Z,14.04
2022-10-25T09:59:15.141Z,14.08
2022-10-25T10:01:43.570Z,14.09
2022-10-25T10:04:25.764Z,14.12
2022-10-25T10:07:00.149Z,14.11
2022-10-25T10:09:33.934Z,14.09
2022-10-25T10:12:05.208Z,14.09
2022-10-25T10:14:47.689Z,14.07
2022-10-25T10:17:18.158Z,14.08
2022-10-25T10:20:06.009Z,14.09
2022-10-25T10:22:38.712Z,14.09
2022-10-25T10:25:10.208Z,14.13
2022-10-25T10:27:37.967Z,14.18
2022-10-25T10:30:13.187Z,14.23
2022-10-25T10:35:29.159Z,14.33
2022-10-25T10:38:27.101Z,14.36
2022-10-25T10:41:25.717Z,14.37
2022-10-25T10:44:10.172Z,14.35
2022-10-25T10:46:46.018Z,14.32
2022-10-25T10:49:14.830Z,14.29
2022-10-25T10:51:45.297Z,14.25
2022-10-25T10:54:26.172Z,14.20
2022-10-25T10:57:03.566Z,14.16
2022-10-25T10:59:39.154Z,14.14
2022-10-25T11:02:41.106Z,14.14
2022-10-25T11:05:23.388Z,14.13
2022-10-25T11:08:00.362Z,14.13
2022-10-25T11:10:37.020Z,14.13
2022-10-25T11:13:14.989Z,14.14
2022-10-25T11:16:13.815Z,14.13
2022-10-25T11:19:27.497Z,14.12
2022-10-25T11:22:09.379Z,14.13
2022-10-25T11:25:20.305Z,14.12
2022-10-25T11:28:06.255Z,14.14
2022-10-25T11:31:00.712Z,14.16
2022-10-25T11:33:42.265Z,14.18
2022-10-25T11:36:51.753Z,14.19
2022-10-25T11:39:47.425Z,14.24
2022-10-25T11:45:13.778Z,14.23
2022-10-25T11:48:05.178Z,14.24
2022-10-25T11:50:40.382Z,14.23
2022-10-25T11:53:49.993Z,14.22
2022-10-25T11:56:51.522Z,14.22
2022-10-25T11:59:45.443Z,14.22
2022-10-25T12:02:30.725Z,14.19
2022-10-25T12:05:27.427Z,14.18
2022-10-25T12:08:09.635Z,14.17
2022-10-25T12:10:41.847Z,14.15
2022-10-25T12:13:33.109Z,14.14
2022-10-25T12:16:04.772Z,14.12
2022-10-25T12:18:38.219Z,14.11
2022-10-25T12:21:09.446Z,14.09
2022-10-25T12:23:44.267Z,14.11
2022-10-25T12:26:25.547Z,14.11
2022-10-25T12:28:53.139Z,14.09
2022-10-25T12:31:27.376Z,14.09
2022-10-25T12:34:24.595Z,14.09
2022-10-25T12:36:56.656Z,14.11
2022-10-25T12:39:32.209Z,14.08
2022-10-25T12:42:04.841Z,14.05
2022-10-25T12:44:56.050Z,14.05
2022-10-25T12:47:35.156Z,14.05
2022-10-25T12:50:40.595Z,14.05
2022-10-25T12:53:29.136Z,14.05
2022-10-25T12:56:28.259Z,14.05
2022-10-25T12:59:38.955Z,14.06
2022-10-25T13:02:21.825Z,14.07
2022-10-25T13:05:27.686Z,14.07
2022-10-25T13:08:00.322Z,14.08
2022-10-25T13:10:32.898Z,14.06
2022-10-25T13:13:08.143Z,14.06
2022-10-25T13:15:44.672Z,14.06
2022-10-25T13:18:35.977Z,14.06
2022-10-25T13:21:08.613Z,14.05
2022-10-25T13:23:48.208Z,14.06
2022-10-25T13:26:19.767Z,14.07
2022-10-25T13:28:56.907Z,14.09
2022-10-25T13:31:41.968Z,14.13
2022-10-25T13:34:20.853Z,14.14
2022-10-25T13:36:57.300Z,14.16
2022-10-25T13:39:43.860Z,14.17
2022-10-25T13:42:20.146Z,14.17
2022-10-25T13:45:05.140Z,14.19
2022-10-25T13:47:48.655Z,14.19
2022-10-25T13:50:44.974Z,14.21
2022-10-25T13:53:46.574Z,14.20
2022-10-25T13:56:31.384Z,14.21
2022-10-25T13:59:01.485Z,14.20
2022-10-25T14:01:37.444Z,14.19
2022-10-25T14:04:25.540Z,14.18
2022-10-25T14:06:54.213Z,14.16
2022-10-25T14:09:32.997Z,14.14
2022-10-25T14:12:14.608Z,14.13
2022-10-25T14:14:51.254Z,14.12
2022-10-25T14:17:39.071Z,14.09
2022-10-25T14:20:29.310Z,14.07
2022-10-25T14:23:06.908Z,14.04
2022-10-25T14:25:40.763Z,14.03
2022-10-25T14:28:27.595Z,14.00
2022-10-25T14:30:58.943Z,13.97
2022-10-25T14:33:39.298Z,13.93
2022-10-25T14:36:26.980Z,13.92
2022-10-25T14:39:02.694Z,13.87
2022-10-25T14:41:34.038Z,13.87
2022-10-25T14:44:03.037Z,13.86
2022-10-25T14:46:31.010Z,13.87
2022-10-25T14:49:01.360Z,13.84
2022-10-25T14:51:33.725Z,13.84
2022-10-25T14:54:09.130Z,13.82
2022-10-25T14:56:48.573Z,13.81
2022-10-25T14:59:43.218Z,13.79
2022-10-25T15:02:31.912Z,13.78
2022-10-25T15:05:02.201Z,13.76
2022-10-25T15:07:46.393Z,13.75
2022-10-25T15:10:34.226Z,13.74
2022-10-25T15:13:40.192Z,13.71
2022-10-25T15:16:33.106Z,13.68
2022-10-25T15:19:18.498Z,13.66
2022-10-25T15:21:51.439Z,13.64
2022-10-25T15:24:27.963Z,13.61
2022-10-25T15:27:02.125Z,13.57
2022-10-25T15:32:21.340Z,13.50
2022-10-25T15:34:53.491Z,13.48
2022-10-25T15:37:23.348Z,13.46
2022-10-25T15:39:53.424Z,13.43
2022-10-25T15:42:24.257Z,13.42
2022-10-25T15:44:51.968Z,13.39
2022-10-25T15:47:41.520Z,13.40
2022-10-25T15:50:19.592Z,13.38
2022-10-25T15:52:50.245Z,13.38
2022-10-25T15:55:22.541Z,13.38
2022-10-25T15:57:51.268Z,13.38
2022-10-25T16:00:25.714Z,13.36
2022-10-25T16:02:52.997Z,13.37
2022-10-25T16:05:28.598Z,13.38
2022-10-25T16:07:56.181Z,13.38
2022-10-25T16:10:24.589Z,13.38
2022-10-25T16:13:03.510Z,13.38
2022-10-25T16:15:31.680Z,13.39
2022-10-25T16:17:59.164Z,13.40
2022-10-25T16:20:30.085Z,13.39
2022-10-25T16:22:58.208Z,13.36
2022-10-25T16:25:30.546Z,13.36
2022-10-25T16:27:56.669Z,13.35
2022-10-25T16:30:27.007Z,13.35
2022-10-25T16:32:54.820Z,13.34
2022-10-25T16:35:24.106Z,13.35
2022-10-25T16:37:52.956Z,13.34
2022-10-25T16:40:22.015Z,13.34
2022-10-25T16:42:49.997Z,13.33
2022-10-25T16:45:31.388Z,13.34
2022-10-25T16:47:59.705Z,13.35
2022-10-25T16:50:30.950Z,13.35
2022-10-25T16:53:03.713Z,13.36
2022-10-25T16:55:31.400Z,13.39
2022-10-25T16:58:00.854Z,13.40
2022-10-25T17:00:32.072Z,13.41
2022-10-25T17:02:59.760Z,13.42
2022-10-25T17:05:29.851Z,13.43
2022-10-25T17:07:57.612Z,13.44
2022-10-25T17:10:25.566Z,13.44
2022-10-25T17:13:00.793Z,13.45
2022-10-25T17:15:30.360Z,13.45
2022-10-25T17:17:58.765Z,13.46
2022-10-25T17:20:26.420Z,13.46
2022-10-25T17:22:54.356Z,13.45
2022-10-25T17:25:23.651Z,13.46
2022-10-25T17:27:52.527Z,13.47
2022-10-25T17:30:20.696Z,13.47
2022-10-25T17:32:48.595Z,13.47
2022-10-25T17:35:18.408Z,13.48
2022-10-25T17:37:46.675Z,13.47
2022-10-25T17:40:14.772Z,13.47
2022-10-25T17:42:42.523Z,13.46
2022-10-25T17:45:10.862Z,13.47
2022-10-25T17:47:40.753Z,13.46
2022-10-25T17:50:10.189Z,13.45
2022-10-25T17:52:40.033Z,13.44
2022-10-25T17:55:10.755Z,13.43
2022-10-25T17:57:39.268Z,13.42
2022-10-25T18:00:08.623Z,13.40
2022-10-25T18:02:45.793Z,13.40
2022-10-25T18:05:20.355Z,13.39
2022-10-25T18:07:43.275Z,13.38
2022-10-25T18:10:11.038Z,13.36
2022-10-25T18:12:38.499Z,13.34
2022-10-25T18:15:06.961Z,13.34
2022-10-25T18:17:34.592Z,13.32
2022-10-25T18:20:02.216Z,13.30
2022-10-25T18:22:30.652Z,13.31
2022-10-25T18:24:58.524Z,13.30
2022-10-25T18:27:26.253Z,13.29
2022-10-25T18:29:53.565Z,13.29
2022-10-25T18:32:23.084Z,13.28
2022-10-25T18:34:50.601Z,13.29
2022-10-25T18:37:18.044Z,13.28
2022-10-25T18:39:45.724Z,13.29
2022-10-25T18:42:13.476Z,13.29
2022-10-25T18:44:42.390Z,13.28
2022-10-25T18:47:10.247Z,13.31
2022-10-25T18:49:37.836Z,13.30
2022-10-25T18:52:05.565Z,13.29
2022-10-25T18:54:33.533Z,13.29
2022-10-25T18:57:01.390Z,13.30
2022-10-25T18:59:29.106Z,13.29
2022-10-25T19:01:56.597Z,13.28
2022-10-25T19:04:24.495Z,13.29
2022-10-25T19:06:52.106Z,13.29
2022-10-25T19:09:19.537Z,13.29
2022-10-25T19:11:47.968Z,13.28
2022-10-25T19:14:15.964Z,13.29
2022-10-25T19:16:44.346Z,13.28
2022-10-25T19:19:12.007Z,13.27
2022-10-25T19:21:40.128Z,13.27
2022-10-25T19:24:10.537Z,13.25
2022-10-25T19:26:38.945Z,13.26
2022-10-25T19:29:06.720Z,13.25
2022-10-25T19:31:34.404Z,13.27
2022-10-25T19:34:02.834Z,13.27
2022-10-25T19:36:31.512Z,13.28
2022-10-25T19:38:59.723Z,13.27
2022-10-25T19:41:27.585Z,13.28
2022-10-25T19:43:58.018Z,13.28
2022-10-25T19:46:25.808Z,13.28
2022-10-25T19:48:55.594Z,13.23
2022-10-25T19:51:23.427Z,13.18
2022-10-25T19:53:51.713Z,13.09
2022-10-25T19:56:22.447Z,13.05
2022-10-25T19:58:50.865Z,13.02
2022-10-25T20:01:22.715Z,12.98
2022-10-25T20:03:54.187Z,12.96
2022-10-25T20:06:26.455Z,12.93
2022-10-25T20:08:55.739Z,12.87
2022-10-25T20:11:24.901Z,12.84
2022-10-25T20:13:54.954Z,12.81
2022-10-25T20:16:24.083Z,12.80
2022-10-25T20:18:52.957Z,12.79
2022-10-25T20:21:26.856Z,12.78
2022-10-25T20:23:58.889Z,12.79
2022-10-25T20:26:33.707Z,12.80
2022-10-25T20:29:06.101Z,12.79
2022-10-25T20:31:34.589Z,12.80
2022-10-25T20:34:02.161Z,12.80
2022-10-25T20:36:30.677Z,12.80
2022-10-25T20:38:58.519Z,12.80
2022-10-25T20:41:28.995Z,12.81
2022-10-25T20:44:00.124Z,12.82
2022-10-25T20:46:28.790Z,12.81
2022-10-25T20:48:58.324Z,12.82
2022-10-25T20:51:27.296Z,12.82
2022-10-25T20:53:56.471Z,12.83
2022-10-25T20:56:24.421Z,12.84
2022-10-25T20:58:52.582Z,12.83
2022-10-25T21:01:20.919Z,12.84
2022-10-25T21:03:48.680Z,12.84
2022-10-25T21:06:16.457Z,12.84
2022-10-25T21:08:44.110Z,12.85
2022-10-25T21:11:13.024Z,12.84
2022-10-25T21:13:42.247Z,12.85
2022-10-25T21:16:12.777Z,12.86
2022-10-25T21:18:41.957Z,12.88
2022-10-25T21:21:17.452Z,12.87
2022-10-25T21:23:47.871Z,12.90
2022-10-25T21:26:16.237Z,12.91
2022-10-25T21:28:44.014Z,12.92
2022-10-25T21:31:14.666Z,12.93
2022-10-25T21:33:49.955Z,12.94
2022-10-25T21:36:18.010Z,12.94
2022-10-25T21:38:45.617Z,12.94
2022-10-25T21:41:22.329Z,12.94
2022-10-25T21:43:50.573Z,12.94
2022-10-25T21:46:20.740Z,12.91
2022-10-25T21:48:52.353Z,12.87
2022-10-25T21:51:26.487Z,12.80
2022-10-25T21:53:55.165Z,12.73
2022-10-25T21:56:25.693Z,12.65
2022-10-25T21:58:53.329Z,12.60
2022-10-25T22:01:25.379Z,12.55
2022-10-25T22:03:53.210Z,12.54
2022-10-25T22:06:23.846Z,12.51
2022-10-25T22:08:54.571Z,12.46
2022-10-25T22:11:29.023Z,12.43
2022-10-25T22:14:00.280Z,12.42
2022-10-25T22:16:29.936Z,12.41
2022-10-25T22:19:02.478Z,12.39
2022-10-25T22:21:36.941Z,12.39
2022-10-25T22:24:07.875Z,12.38
2022-10-25T22:26:37.907Z,12.36
2022-10-25T22:29:05.913Z,12.35
2022-10-25T22:31:34.257Z,12.33
2022-10-25T22:34:05.215Z,12.34
2022-10-25T22:36:37.150Z,12.33
2022-10-25T22:39:06.441Z,12.31
2022-10-25T22:41:34.631Z,12.30
2022-10-25T22:44:02.830Z,12.28
2022-10-25T22:46:34.331Z,12.22
2022-10-25T22:49:08.976Z,12.20
2022-10-25T22:51:37.692Z,12.14
2022-10-25T22:54:05.855Z,12.12
2022-10-25T22:56:34.440Z,12.11
2022-10-25T22:59:04.651Z,12.09
2022-10-25T23:01:35.724Z,12.09
2022-10-25T23:04:07.700Z,12.07
2022-10-25T23:06:39.002Z,12.06
2022-10-25T23:09:09.686Z,12.08
2022-10-25T23:11:39.009Z,12.08
2022-10-25T23:14:09.815Z,12.08
2022-10-25T23:16:37.931Z,12.07
2022-10-25T23:19:05.626Z,12.09
2022-10-25T23:21:33.278Z,12.08
2022-10-25T23:24:01.107Z,12.09
2022-10-25T23:26:35.773Z,12.09
2022-10-25T23:29:04.327Z,12.09
2022-10-25T23:31:32.416Z,12.08
2022-10-25T23:34:00.830Z,12.10
2022-10-25T23:36:36.244Z,12.10
2022-10-25T23:39:06.073Z,12.07
2022-10-25T23:41:33.816Z,12.08
2022-10-25T23:44:01.798Z,12.08
2022-10-25T23:46:29.529Z,12.09
2022-10-25T23:48:57.465Z,12.09
2022-10-25T23:51:25.333Z,12.09
2022-10-25T23:53:53.137Z,12.07
2022-10-25T23:56:20.832Z,12.08
2022-10-25T23:58:50.637Z,12.08
